createdAt,value
2018-09-02T00:01:17.096Z,3.42
2018-09-02T00:03:48.419Z,3.27
2018-09-02T00:06:18.480Z,3.33
2018-09-02T00:08:50.201Z,3.17
2018-09-02T00:11:20.546Z,3.17
2018-09-02T00:13:51.670Z,4.42
2018-09-02T00:16:23.708Z,4.03
2018-09-02T00:18:54.424Z,5.60
2018-09-02T00:21:25.842Z,4.90
2018-09-02T00:23:55.889Z,4.15
2018-09-02T00:26:29.427Z,3.22
2018-09-02T00:29:00.880Z,3.40
2018-09-02T00:31:32.141Z,3.85
2018-09-02T00:34:04.589Z,3.63
2018-09-02T00:36:36.018Z,3.67
2018-09-02T00:39:10.482Z,3.30
2018-09-02T00:41:41.010Z,3.35
2018-09-02T00:44:12.708Z,3.42
2018-09-02T00:46:44.007Z,3.72
2018-09-02T00:49:16.094Z,3.37
2018-09-02T00:51:47.686Z,3.90
2018-09-02T00:54:18.176Z,3.90
2018-09-02T00:56:49.894Z,3.50
2018-09-02T00:59:19.948Z,3.47
2018-09-02T01:01:51.255Z,3.75
2018-09-02T01:04:22.518Z,3.83
2018-09-02T01:06:52.517Z,3.47
2018-09-02T01:09:24.018Z,3.10
2018-09-02T01:11:54.118Z,3.60
2018-09-02T01:14:25.069Z,3.40
2018-09-02T01:16:56.079Z,3.65
2018-09-02T01:19:26.470Z,3.65
2018-09-02T01:21:57.307Z,3.80
2018-09-02T01:24:27.756Z,3.40
2018-09-02T01:26:58.206Z,3.70
2018-09-02T01:29:29.785Z,3.50
2018-09-02T01:32:01.060Z,3.52
2018-09-02T01:34:35.192Z,4.00
2018-09-02T01:37:05.720Z,3.47
2018-09-02T01:39:36.299Z,3.90
2018-09-02T01:42:07.421Z,3.85
2018-09-02T01:44:38.240Z,3.98
2018-09-02T01:47:10.095Z,3.92
2018-09-02T01:49:41.911Z,3.60
2018-09-02T01:52:13.188Z,4.65
2018-09-02T01:54:43.645Z,4.30
2018-09-02T01:57:14.484Z,4.42
2018-09-02T01:59:46.533Z,4.28
2018-09-02T02:02:16.976Z,3.92
2018-09-02T02:04:47.541Z,3.65
2018-09-02T02:07:18.568Z,3.90
2018-09-02T02:09:50.317Z,3.98
2018-09-02T02:12:21.011Z,4.10
2018-09-02T02:14:58.348Z,3.92
2018-09-02T02:17:39.295Z,3.90
2018-09-02T02:20:09.615Z,3.95
2018-09-02T02:22:41.933Z,3.85
2018-09-02T02:25:12.014Z,4.22
2018-09-02T02:27:43.150Z,4.08
2018-09-02T02:30:15.235Z,4.62
2018-09-02T02:32:45.752Z,3.95
2018-09-02T02:35:16.424Z,4.00
2018-09-02T02:37:47.785Z,4.50
2018-09-02T02:40:18.263Z,4.30
2018-09-02T02:42:50.335Z,4.20
2018-09-02T02:45:21.390Z,4.50
2018-09-02T02:47:52.294Z,4.12
2018-09-02T02:50:22.415Z,4.22
2018-09-02T02:52:57.944Z,4.20
2018-09-02T02:55:28.392Z,3.90
2018-09-02T02:57:59.487Z,4.05
2018-09-02T03:00:30.734Z,4.53
2018-09-02T03:03:01.527Z,4.45
2018-09-02T03:05:32.614Z,4.00
2018-09-02T03:08:03.704Z,4.37
2018-09-02T03:10:35.792Z,4.10
2018-09-02T03:13:06.964Z,4.27
2018-09-02T03:15:38.212Z,4.45
2018-09-02T03:18:09.878Z,4.50
2018-09-02T03:20:40.219Z,4.80
2018-09-02T03:23:10.245Z,4.40
2018-09-02T03:25:42.303Z,4.83
2018-09-02T03:28:14.790Z,4.95
2018-09-02T03:30:45.759Z,4.93
2018-09-02T03:33:18.034Z,4.90
2018-09-02T03:35:48.746Z,5.55
2018-09-02T03:38:18.972Z,5.62
2018-09-02T03:40:51.434Z,5.75
2018-09-02T03:43:22.490Z,5.75
2018-09-02T03:45:53.724Z,6.53
2018-09-02T03:48:23.806Z,5.73
2018-09-02T03:50:55.540Z,6.03
2018-09-02T03:53:25.956Z,5.80
2018-09-02T03:55:57.057Z,5.97
2018-09-02T03:58:27.128Z,6.23
2018-09-02T04:00:58.442Z,6.78
2018-09-02T04:03:28.575Z,7.20
2018-09-02T04:05:59.764Z,7.77
2018-09-02T04:08:31.781Z,6.62
2018-09-02T04:11:02.894Z,7.25
2018-09-02T04:13:33.017Z,6.83
2018-09-02T04:16:08.981Z,6.55
2018-09-02T04:18:39.706Z,6.75
2018-09-02T04:21:11.170Z,7.28
2018-09-02T04:23:42.407Z,7.70
2018-09-02T04:26:12.952Z,7.72
2018-09-02T04:28:45.346Z,7.60
2018-09-02T04:31:15.826Z,8.83
2018-09-02T04:33:47.420Z,8.63
2018-09-02T04:36:17.970Z,8.50
2018-09-02T04:38:48.972Z,8.93
2018-09-02T04:41:19.392Z,10.00
2018-09-02T04:43:53.506Z,10.05
2018-09-02T04:46:27.104Z,9.38
2018-09-02T04:48:57.319Z,10.65
2018-09-02T04:51:28.949Z,10.93
2018-09-02T04:53:59.116Z,11.22
2018-09-02T04:56:29.562Z,11.73
2018-09-02T04:59:00.879Z,10.93
2018-09-02T05:01:31.193Z,10.73
2018-09-02T05:04:01.899Z,11.85
2018-09-02T05:06:33.054Z,12.30
2018-09-02T05:09:05.456Z,11.70
2018-09-02T05:11:35.616Z,11.43
2018-09-02T05:14:06.081Z,12.20
2018-09-02T05:16:37.816Z,10.72
2018-09-02T05:19:09.482Z,11.60
2018-09-02T05:21:39.498Z,11.20
2018-09-02T05:24:10.072Z,11.90
2018-09-02T05:26:41.933Z,11.90
2018-09-02T05:29:13.042Z,11.80
2018-09-02T05:31:45.814Z,12.40
2018-09-02T05:34:15.862Z,13.20
2018-09-02T05:36:46.397Z,12.00
2018-09-02T05:39:19.003Z,12.37
2018-09-02T05:41:49.429Z,12.25
2018-09-02T05:44:20.760Z,12.10
2018-09-02T05:46:53.868Z,12.53
2018-09-02T05:49:25.827Z,12.37
2018-09-02T05:51:58.278Z,12.60
2018-09-02T05:54:31.704Z,12.77
2018-09-02T05:57:04.077Z,12.18
2018-09-02T05:59:34.997Z,11.40
2018-09-02T06:02:05.869Z,11.48
2018-09-02T06:04:36.330Z,11.63
2018-09-02T06:07:07.702Z,10.83
2018-09-02T06:09:42.564Z,11.12
2018-09-02T06:12:13.678Z,10.90
2018-09-02T06:14:45.333Z,10.95
2018-09-02T06:17:17.097Z,10.98
2018-09-02T06:19:47.397Z,11.30
2018-09-02T06:22:17.840Z,10.80
2018-09-02T06:24:48.501Z,11.38
2018-09-02T06:27:19.143Z,10.88
2018-09-02T06:29:54.054Z,10.95
2018-09-02T06:32:26.031Z,10.53
2018-09-02T06:34:56.373Z,10.85
2018-09-02T06:37:30.967Z,10.80
2018-09-02T06:40:03.304Z,10.65
2018-09-02T06:42:34.564Z,10.68
2018-09-02T06:45:09.374Z,11.03
2018-09-02T06:47:40.184Z,10.13
2018-09-02T06:50:11.775Z,9.93
2018-09-02T06:52:46.246Z,8.98
2018-09-02T06:55:16.551Z,9.60
2018-09-02T06:57:47.829Z,9.93
2018-09-02T07:00:19.487Z,9.20
2018-09-02T07:02:50.105Z,9.58
2018-09-02T07:05:20.561Z,9.53
2018-09-02T07:07:51.080Z,10.10
2018-09-02T07:10:21.201Z,8.85
2018-09-02T07:12:51.633Z,8.20
2018-09-02T07:15:23.109Z,9.08
2018-09-02T07:17:53.308Z,8.15
2018-09-02T07:20:23.605Z,8.33
2018-09-02T07:22:55.651Z,7.90
2018-09-02T07:25:26.820Z,7.67
2018-09-02T07:27:57.021Z,7.70
2018-09-02T07:30:27.739Z,7.78
2018-09-02T07:32:58.919Z,6.90
2018-09-02T07:35:30.315Z,6.80
2018-09-02T07:38:00.509Z,7.20
2018-09-02T07:40:32.913Z,7.72
2018-09-02T07:43:03.681Z,7.97
2018-09-02T07:45:33.758Z,7.28
2018-09-02T07:48:05.351Z,7.35
2018-09-02T07:50:35.431Z,7.70
2018-09-02T07:53:05.827Z,7.67
2018-09-02T07:55:37.066Z,7.37
2018-09-02T07:58:07.780Z,7.30
2018-09-02T08:00:38.990Z,7.00
2018-09-02T08:03:11.922Z,7.12
2018-09-02T08:05:42.530Z,8.00
2018-09-02T08:08:13.911Z,7.55
2018-09-02T08:10:45.138Z,6.65
2018-09-02T08:13:17.534Z,6.47
2018-09-02T08:15:50.349Z,6.67
2018-09-02T08:18:23.741Z,6.83
2018-09-02T08:20:54.586Z,7.35
2018-09-02T08:23:26.925Z,6.55
2018-09-02T08:25:58.422Z,7.40
2018-09-02T08:28:29.236Z,7.70
2018-09-02T08:31:00.281Z,7.25
2018-09-02T08:33:31.879Z,8.25
2018-09-02T08:36:02.414Z,9.20
2018-09-02T08:38:33.582Z,6.75
2018-09-02T08:41:05.048Z,6.80
2018-09-02T08:43:36.471Z,6.70
2018-09-02T08:46:07.844Z,6.92
2018-09-02T08:48:39.283Z,7.17
2018-09-02T08:51:11.015Z,6.65
2018-09-02T08:53:42.465Z,6.30
2018-09-02T08:56:16.573Z,8.38
2018-09-02T08:58:47.360Z,25.65
2018-09-02T09:01:19.414Z,24.25
2018-09-02T09:03:50.300Z,7.40
2018-09-02T09:06:22.262Z,5.97
2018-09-02T09:08:54.123Z,6.42
2018-09-02T09:11:26.670Z,7.80
2018-09-02T09:13:57.537Z,5.70
2018-09-02T09:16:28.627Z,5.70
2018-09-02T09:19:00.010Z,5.17
2018-09-02T09:21:31.664Z,6.70
2018-09-02T09:24:03.657Z,6.22
2018-09-02T09:26:34.927Z,6.80
2018-09-02T09:29:05.794Z,5.45
2018-09-02T09:31:43.544Z,4.90
2018-09-02T09:34:13.652Z,3.97
2018-09-02T09:36:43.950Z,4.85
2018-09-02T09:39:15.934Z,4.37
2018-09-02T09:41:46.826Z,3.67
2018-09-02T09:44:17.154Z,4.37
2018-09-02T09:46:48.694Z,5.83
2018-09-02T09:49:21.199Z,4.10
2018-09-02T09:51:53.021Z,4.25
2018-09-02T09:54:23.125Z,5.00
2018-09-02T09:56:54.248Z,6.00
2018-09-02T09:59:24.447Z,4.40
2018-09-02T10:01:56.016Z,2.92
2018-09-02T10:04:26.128Z,3.02
2018-09-02T10:06:57.280Z,3.47
2018-09-02T10:09:27.707Z,4.03
2018-09-02T10:12:01.918Z,3.10
2018-09-02T10:14:34.409Z,2.83
2018-09-02T10:17:08.342Z,2.58
2018-09-02T10:19:40.878Z,3.10
2018-09-02T10:22:13.560Z,3.47
2018-09-02T10:24:45.325Z,3.10
2018-09-02T10:27:16.524Z,3.08
2018-09-02T10:29:51.283Z,2.70
2018-09-02T10:32:23.658Z,2.85
2018-09-02T10:34:53.775Z,2.52
2018-09-02T10:37:24.124Z,1.90
2018-09-02T10:39:54.608Z,2.12
2018-09-02T10:42:25.233Z,2.77
2018-09-02T10:44:56.527Z,4.23
2018-09-02T10:47:27.971Z,2.30
2018-09-02T10:49:58.182Z,2.85
2018-09-02T10:52:32.315Z,2.40
2018-09-02T10:55:03.285Z,2.27
2018-09-02T10:57:35.132Z,2.58
2018-09-02T11:00:08.086Z,2.27
2018-09-02T11:02:41.591Z,2.77
2018-09-02T11:05:12.321Z,2.33
2018-09-02T11:07:43.986Z,2.37
2018-09-02T11:10:16.640Z,2.47
2018-09-02T11:12:47.783Z,2.17
2018-09-02T11:15:20.621Z,2.10
2018-09-02T11:17:54.189Z,1.80
2018-09-02T11:20:25.177Z,2.20
2018-09-02T11:22:56.808Z,2.10
2018-09-02T11:25:28.467Z,2.10
2018-09-02T11:27:59.371Z,2.52
2018-09-02T11:30:30.284Z,2.22
2018-09-02T11:33:01.882Z,2.55
2018-09-02T11:35:32.481Z,2.03
2018-09-02T11:38:04.033Z,2.20
2018-09-02T11:40:35.093Z,2.50
2018-09-02T11:43:05.611Z,2.37
2018-09-02T11:45:36.607Z,2.33
2018-09-02T11:48:07.483Z,2.42
2018-09-02T11:50:39.164Z,2.33
2018-09-02T11:53:10.408Z,2.20
2018-09-02T11:55:42.285Z,2.35
2018-09-02T11:58:12.819Z,2.20
2018-09-02T12:00:43.075Z,2.90
2018-09-02T12:03:15.827Z,2.53
2018-09-02T12:05:47.557Z,2.27
2018-09-02T12:08:17.711Z,2.80
2018-09-02T12:10:48.302Z,2.30
2018-09-02T12:13:22.629Z,2.40
2018-09-02T12:15:52.688Z,2.55
2018-09-02T12:18:24.476Z,2.97
2018-09-02T12:20:57.076Z,2.40
2018-09-02T12:23:28.406Z,2.25
2018-09-02T12:25:59.512Z,2.33
2018-09-02T12:28:31.592Z,2.20
2018-09-02T12:31:02.289Z,2.40
2018-09-02T12:33:32.935Z,2.40
2018-09-02T12:36:05.714Z,2.20
2018-09-02T12:38:38.055Z,2.10
2018-09-02T12:41:09.485Z,2.40
2018-09-02T12:43:42.521Z,3.20
2018-09-02T12:46:13.723Z,2.20
2018-09-02T12:48:43.841Z,2.55
2018-09-02T12:51:15.707Z,2.63
2018-09-02T12:53:46.712Z,3.03
2018-09-02T12:56:18.225Z,3.70
2018-09-02T12:58:54.115Z,3.05
2018-09-02T13:01:24.564Z,2.80
2018-09-02T13:03:54.634Z,2.50
2018-09-02T13:06:26.422Z,2.80
2018-09-02T13:08:57.424Z,2.72
2018-09-02T13:11:28.516Z,2.40
2018-09-02T13:13:59.209Z,3.00
2018-09-02T13:16:29.436Z,2.95
2018-09-02T13:19:00.923Z,3.27
2018-09-02T13:21:31.809Z,3.20
2018-09-02T13:24:04.303Z,3.60
2018-09-02T13:26:36.434Z,3.70
2018-09-02T13:29:08.539Z,3.87
2018-09-02T13:31:39.724Z,4.40
2018-09-02T13:34:10.623Z,4.10
2018-09-02T13:36:42.805Z,4.20
2018-09-02T13:39:18.157Z,4.00
2018-09-02T13:41:50.270Z,3.85
2018-09-02T13:44:22.882Z,3.83
2018-09-02T13:46:53.624Z,4.22
2018-09-02T13:49:26.392Z,4.10
2018-09-02T13:51:57.915Z,4.25
2018-09-02T13:54:29.464Z,4.55
2018-09-02T13:56:59.943Z,4.70
2018-09-02T13:59:31.150Z,4.65
2018-09-02T14:02:01.378Z,4.80
2018-09-02T14:04:32.501Z,5.40
2018-09-02T14:07:02.977Z,5.00
2018-09-02T14:09:35.214Z,4.87
2018-09-02T14:12:05.784Z,5.35
2018-09-02T14:14:36.224Z,4.87
2018-09-02T14:17:07.224Z,5.12
2018-09-02T14:19:37.512Z,5.03
2018-09-02T14:22:08.049Z,5.62
2018-09-02T14:24:39.705Z,5.30
2018-09-02T14:27:11.607Z,5.55
2018-09-02T14:29:43.168Z,5.37
2018-09-02T14:32:13.900Z,5.35
2018-09-02T14:34:46.606Z,5.57
2018-09-02T14:37:18.992Z,5.22
2018-09-02T14:39:51.126Z,5.45
2018-09-02T14:42:24.941Z,6.00
2018-09-02T14:44:55.979Z,6.12
2018-09-02T14:47:27.051Z,5.50
2018-09-02T14:50:00.658Z,5.60
2018-09-02T14:52:32.145Z,5.70
2018-09-02T14:55:03.583Z,6.00
2018-09-02T14:57:34.133Z,6.05
2018-09-02T15:00:07.721Z,6.00
2018-09-02T15:02:40.935Z,6.47
2018-09-02T15:05:11.333Z,6.72
2018-09-02T15:07:42.493Z,6.35
2018-09-02T15:10:13.389Z,6.55
2018-09-02T15:12:43.577Z,6.53
2018-09-02T15:15:13.779Z,6.58
2018-09-02T15:17:43.935Z,6.67
2018-09-02T15:20:14.327Z,7.15
2018-09-02T15:22:44.537Z,6.50
2018-09-02T15:25:17.037Z,6.77
2018-09-02T15:27:47.543Z,7.28
2018-09-02T15:30:17.779Z,7.15
2018-09-02T15:32:50.141Z,7.50
2018-09-02T15:35:21.503Z,7.30
2018-09-02T15:37:51.642Z,7.53
2018-09-02T15:40:23.007Z,8.20
2018-09-02T15:42:59.857Z,7.35
2018-09-02T15:45:32.525Z,6.80
2018-09-02T15:48:04.174Z,7.37
2018-09-02T15:50:35.136Z,7.25
2018-09-02T15:53:07.336Z,6.65
2018-09-02T15:55:38.458Z,7.60
2018-09-02T15:58:10.556Z,7.55
2018-09-02T16:00:42.744Z,7.60
2018-09-02T16:03:15.154Z,7.50
2018-09-02T16:05:46.836Z,7.08
2018-09-02T16:08:18.153Z,6.87
2018-09-02T16:10:49.532Z,6.87
2018-09-02T16:13:20.122Z,6.83
2018-09-02T16:15:51.909Z,6.40
2018-09-02T16:18:22.393Z,7.55
2018-09-02T16:20:52.944Z,6.25
2018-09-02T16:23:23.511Z,6.67
2018-09-02T16:25:56.054Z,6.47
2018-09-02T16:28:27.698Z,7.03
2018-09-02T16:30:59.064Z,6.50
2018-09-02T16:33:29.458Z,5.85
2018-09-02T16:36:00.566Z,5.70
2018-09-02T16:38:31.876Z,6.70
2018-09-02T16:41:02.588Z,7.05
2018-09-02T16:43:33.758Z,6.07
2018-09-02T16:46:04.870Z,6.17
2018-09-02T16:48:36.118Z,6.65
2018-09-02T16:51:06.648Z,7.30
2018-09-02T16:53:38.850Z,7.05
2018-09-02T16:56:10.286Z,6.47
2018-09-02T16:58:43.035Z,9.63
2018-09-02T17:01:14.432Z,7.40
2018-09-02T17:03:48.458Z,6.12
2018-09-02T17:06:20.361Z,6.45
2018-09-02T17:08:50.515Z,5.80
2018-09-02T17:11:21.136Z,6.20
2018-09-02T17:13:53.499Z,5.60
2018-09-02T17:16:24.978Z,6.40
2018-09-02T17:19:01.210Z,6.28
2018-09-02T17:21:32.292Z,6.00
2018-09-02T17:24:02.440Z,6.60
2018-09-02T17:26:33.224Z,7.00
2018-09-02T17:29:05.740Z,6.83
2018-09-02T17:31:38.409Z,6.40
2018-09-02T17:34:11.357Z,6.90
2018-09-02T17:36:42.440Z,8.50
2018-09-02T17:39:13.345Z,8.40
2018-09-02T17:41:43.987Z,7.90
2018-09-02T17:44:16.070Z,7.90
2018-09-02T17:46:47.267Z,7.85
2018-09-02T17:49:20.305Z,8.83
2018-09-02T17:51:51.185Z,8.53
2018-09-02T17:54:22.343Z,9.50
2018-09-02T17:56:54.454Z,8.68
2018-09-02T17:59:26.489Z,9.20
2018-09-02T18:01:58.571Z,9.20
2018-09-02T18:04:30.312Z,9.43
2018-09-02T18:07:02.496Z,9.45
2018-09-02T18:09:34.663Z,9.58
2018-09-02T18:12:04.865Z,10.78
2018-09-02T18:14:37.409Z,10.50
2018-09-02T18:17:09.296Z,11.03
2018-09-02T18:19:40.677Z,10.82
2018-09-02T18:22:12.320Z,11.00
2018-09-02T18:24:42.723Z,11.53
2018-09-02T18:27:13.797Z,11.50
2018-09-02T18:29:48.221Z,11.68
2018-09-02T18:32:19.246Z,12.20
2018-09-02T18:34:49.531Z,12.43
2018-09-02T18:37:19.879Z,13.25
2018-09-02T18:39:51.205Z,12.87
2018-09-02T18:42:21.592Z,12.73
2018-09-02T18:44:51.812Z,15.10
2018-09-02T18:47:22.054Z,13.00
2018-09-02T18:49:54.419Z,13.53
2018-09-02T18:52:25.710Z,14.30
2018-09-02T18:54:56.739Z,13.05
2018-09-02T18:57:27.935Z,13.48
2018-09-02T18:59:59.106Z,12.88
2018-09-02T19:02:29.957Z,12.88
2018-09-02T19:05:00.327Z,14.78
2018-09-02T19:07:32.662Z,14.57
2018-09-02T19:10:14.501Z,14.63
2018-09-02T19:12:47.524Z,14.03
2018-09-02T19:15:21.055Z,14.28
2018-09-02T19:17:55.814Z,13.93
2018-09-02T19:20:33.140Z,14.60
2018-09-02T19:23:04.068Z,14.95
2018-09-02T19:25:35.010Z,15.78
2018-09-02T19:28:09.086Z,16.35
2018-09-02T19:30:41.275Z,15.43
2018-09-02T19:33:14.632Z,15.85
2018-09-02T19:35:46.019Z,16.85
2018-09-02T19:38:16.870Z,16.60
2018-09-02T19:40:47.000Z,19.85
2018-09-02T19:43:19.085Z,18.73
2018-09-02T19:45:49.731Z,19.12
2018-09-02T19:48:20.883Z,18.20
2018-09-02T19:50:51.763Z,18.02
2018-09-02T19:53:22.251Z,18.15
2018-09-02T19:55:53.382Z,20.72
2018-09-02T19:58:23.650Z,17.40
2018-09-02T20:00:53.844Z,18.60
2018-09-02T20:03:26.641Z,18.37
2018-09-02T20:05:57.707Z,18.48
2018-09-02T20:08:28.567Z,18.25
2018-09-02T20:10:59.022Z,17.80
2018-09-02T20:13:29.501Z,17.57
2018-09-02T20:16:00.935Z,19.10
2018-09-02T20:18:31.082Z,17.65
2018-09-02T20:21:02.418Z,17.67
2018-09-02T20:23:32.658Z,18.98
2018-09-02T20:26:03.058Z,18.35
2018-09-02T20:28:33.406Z,17.95
2018-09-02T20:31:03.952Z,18.65
2018-09-02T20:33:35.078Z,21.35
2018-09-02T20:36:06.463Z,24.23
2018-09-02T20:38:36.641Z,25.05
2018-09-02T20:41:06.970Z,23.62
2018-09-02T20:43:37.128Z,21.73
2018-09-02T20:46:07.316Z,19.48
2018-09-02T20:48:37.528Z,20.15
2018-09-02T20:51:08.483Z,20.85
2018-09-02T20:53:38.550Z,19.37
2018-09-02T20:56:08.792Z,19.52
2018-09-02T20:58:39.150Z,19.12
2018-09-02T21:01:09.326Z,19.07
2018-09-02T21:03:39.554Z,19.75
2018-09-02T21:06:10.013Z,19.27
2018-09-02T21:08:40.454Z,18.60
2018-09-02T21:11:11.597Z,18.47
2018-09-02T21:13:41.846Z,19.75
2018-09-02T21:16:14.835Z,19.55
2018-09-02T21:18:46.473Z,20.45
2018-09-02T21:21:17.602Z,20.30
2018-09-02T21:23:49.180Z,20.15
2018-09-02T21:26:19.649Z,19.92
2018-09-02T21:28:51.639Z,20.32
2018-09-02T21:31:22.678Z,20.35
2018-09-02T21:33:56.398Z,21.57
2018-09-02T21:36:34.348Z,24.45
2018-09-02T21:39:07.030Z,24.63
2018-09-02T21:41:37.597Z,23.12
2018-09-02T21:44:32.944Z,22.53
2018-09-02T21:47:17.509Z,21.87
2018-09-02T21:49:52.899Z,22.45
2018-09-02T21:52:25.101Z,21.45
2018-09-02T21:54:58.586Z,20.40
2018-09-02T21:57:37.903Z,19.92
2018-09-02T22:00:12.623Z,20.00
2018-09-02T22:02:56.362Z,21.10
2018-09-02T22:05:31.110Z,20.48
2018-09-02T22:08:07.791Z,20.53
2018-09-02T22:10:39.766Z,21.62
2018-09-02T22:13:38.102Z,22.10
2018-09-02T22:16:14.654Z,21.70
2018-09-02T22:18:45.283Z,21.30
2018-09-02T22:21:20.016Z,22.65
2018-09-02T22:23:50.827Z,23.75
2018-09-02T22:26:23.132Z,22.85
2018-09-02T22:28:53.766Z,24.40
2018-09-02T22:31:25.932Z,23.30
2018-09-02T22:33:56.580Z,23.27
2018-09-02T22:36:28.106Z,24.55
2018-09-02T22:39:00.809Z,24.32
2018-09-02T22:41:31.345Z,23.80
2018-09-02T22:44:02.636Z,23.25
2018-09-02T22:46:34.043Z,23.02
2018-09-02T22:49:04.855Z,23.15
2018-09-02T22:51:38.489Z,23.95
2018-09-02T22:54:10.059Z,23.42
2018-09-02T22:56:40.920Z,22.53
2018-09-02T22:59:11.587Z,23.40
2018-09-02T23:01:42.049Z,22.77
2018-09-02T23:04:14.269Z,22.17
2018-09-02T23:06:45.265Z,21.95
2018-09-02T23:09:15.845Z,20.90
2018-09-02T23:11:48.295Z,20.48
2018-09-02T23:14:18.995Z,20.43
2018-09-02T23:16:50.919Z,20.50
2018-09-02T23:19:21.111Z,20.70
2018-09-02T23:21:52.354Z,19.70
2018-09-02T23:24:23.617Z,19.73
2018-09-02T23:26:54.454Z,20.52
2018-09-02T23:29:25.862Z,19.60
2018-09-02T23:31:57.026Z,19.92
2018-09-02T23:34:27.717Z,20.35
2018-09-02T23:36:59.023Z,20.97
2018-09-02T23:39:29.119Z,20.05
2018-09-02T23:41:59.143Z,20.70
2018-09-02T23:44:29.332Z,19.35
2018-09-02T23:46:59.762Z,19.48
2018-09-02T23:49:30.758Z,19.90
2018-09-02T23:52:00.816Z,19.67
2018-09-02T23:54:31.706Z,20.40
2018-09-02T23:57:01.813Z,20.08
2018-09-02T23:59:31.954Z,19.57
